Strona główna
METAR-TAF:

METAR-TAF

Lotnisko :

Port lotniczy Bathurst

Bathurst, Nowy Brunszwik, Kanada

Szerokość geograficzna: 47-38N, Długość geograficzna: 065-45W, wysokość: 59 m

Aktualna obserwacja pogody

Raport powstał 56 minut temu, godzina 05:00 UTC
Wiatr 3 kt od południowy zachód
Temperatura -10°C
Wilgotność 92%
Ciśnienie 1017 hPa
Widzialność: 14.5 km
Zachmurzenie całkowite na wysokości 23000 ft

METAR: CZBF 170500Z AUTO 22003KT 9SM OVC230 M10/M11 A3004 RMK SLP177

czas: 01:56 (05:56 UTC)

Prognoza

Raport powstał 4 godziny i 18 minut temu, godzina 01:38 UTC
Prognoza ważna od 17 godzina 02 UTC do 17 godzina 04 UTC
Wiatr 3 kt z kierunków zmiennych
Widzialność: 10 km
bezchmurnie

TAF: CZBF 170138Z 1702/1704 VRB03KT P6SM SKC RMK FCST BASED ON AUTO OBS. NXT FCST WILL BE ISSUED AT 170945Z

Obserwacja i prognoza pogody dla ponad 4000 lotnisk (raport METAR i TAF).

Dostępne stacje oznaczono żółtymi i czerwonymi punktami na mapie.

Najedź kursorem aby zobaczyć nazwę stacji.

Kliknij aby zobaczyć obserwacje i prognozy pogody.

Aby zmienić mapę: kliknij na zielony przycisk z czarnym krzyżykiem, aby powiększyć; na zielony przycisk z myślnikiem, aby pomniejszyć; na zielone strzałki, aby przejść do map sąsiednich.


METAR-TAF: